sensor_id;sensor_type;location;lat;lon;timestamp;pressure;altitude;pressure_sealevel;temperature;humidity
16030;BME280;34770;49.272;11.070;2022-08-21T00:01:21;97751.91;;;17.23;100.00
16030;BME280;34770;49.272;11.070;2022-08-21T00:03:47;97755.53;;;17.20;100.00
16030;BME280;34770;49.272;11.070;2022-08-21T00:06:12;97770.38;;;17.25;100.00
16030;BME280;34770;49.272;11.070;2022-08-21T00:08:38;97750.69;;;17.25;100.00
16030;BME280;34770;49.272;11.070;2022-08-21T00:11:03;97756.72;;;17.09;100.00
16030;BME280;34770;49.272;11.070;2022-08-21T00:13:29;97753.50;;;17.10;100.00
16030;BME280;34770;49.272;11.070;2022-08-21T00:15:56;97753.50;;;17.06;100.00
16030;BME280;34770;49.272;11.070;2022-08-21T00:18:21;97739.78;;;16.87;100.00
16030;BME280;34770;49.272;11.070;2022-08-21T00:20:47;97728.50;;;16.72;100.00
16030;BME280;34770;49.272;11.070;2022-08-21T00:23:14;97759.00;;;16.70;100.00
16030;BME280;34770;49.272;11.070;2022-08-21T00:25:42;97747.75;;;16.63;100.00
16030;BME280;34770;49.272;11.070;2022-08-21T00:28:08;97746.16;;;16.73;100.00
16030;BME280;34770;49.272;11.070;2022-08-21T00:30:34;97722.09;;;16.68;100.00
16030;BME280;34770;49.272;11.070;2022-08-21T00:33:00;97712.06;;;16.71;100.00
16030;BME280;34770;49.272;11.070;2022-08-21T00:35:29;97739.00;;;16.90;100.00
16030;BME280;34770;49.272;11.070;2022-08-21T00:37:55;97740.19;;;16.89;100.00
16030;BME280;34770;49.272;11.070;2022-08-21T00:40:32;97752.22;;;16.79;100.00
16030;BME280;34770;49.272;11.070;2022-08-21T00:42:58;97740.97;;;16.86;100.00
16030;BME280;34770;49.272;11.070;2022-08-21T00:45:24;97735.75;;;16.81;100.00
16030;BME280;34770;49.272;11.070;2022-08-21T00:47:53;97720.50;;;16.82;100.00
16030;BME280;34770;49.272;11.070;2022-08-21T00:50:20;97733.72;;;16.70;100.00
16030;BME280;34770;49.272;11.070;2022-08-21T00:52:46;97732.53;;;16.71;100.00
16030;BME280;34770;49.272;11.070;2022-08-21T00:55:13;97718.03;;;16.66;100.00
16030;BME280;34770;49.272;11.070;2022-08-21T00:57:47;97714.84;;;16.60;100.00
16030;BME280;34770;49.272;11.070;2022-08-21T01:00:18;97730.88;;;16.63;100.00
16030;BME280;34770;49.272;11.070;2022-08-21T01:02:45;97743.34;;;16.62;100.00
16030;BME280;34770;49.272;11.070;2022-08-21T01:05:11;97748.13;;;16.54;100.00
16030;BME280;34770;49.272;11.070;2022-08-21T01:07:37;97743.69;;;16.53;100.00
16030;BME280;34770;49.272;11.070;2022-08-21T01:10:05;97725.22;;;16.38;100.00
16030;BME280;34770;49.272;11.070;2022-08-21T01:12:31;97748.50;;;16.46;100.00
16030;BME280;34770;49.272;11.070;2022-08-21T01:14:57;97738.84;;;16.39;100.00
16030;BME280;34770;49.272;11.070;2022-08-21T01:17:24;97728.03;;;16.38;100.00
16030;BME280;34770;49.272;11.070;2022-08-21T01:19:51;97730.00;;;16.30;100.00
16030;BME280;34770;49.272;11.070;2022-08-21T01:22:17;97727.19;;;16.30;100.00
16030;BME280;34770;49.272;11.070;2022-08-21T01:24:42;97742.44;;;16.36;100.00
16030;BME280;34770;49.272;11.070;2022-08-21T01:27:08;97727.19;;;16.30;100.00
16030;BME280;34770;49.272;11.070;2022-08-21T01:29:57;97741.25;;;16.37;100.00
16030;BME280;34770;49.272;11.070;2022-08-21T01:32:25;97735.22;;;16.39;100.00
16030;BME280;34770;49.272;11.070;2022-08-21T01:34:51;97728.41;;;16.36;100.00
16030;BME280;34770;49.272;11.070;2022-08-21T01:37:19;97732.00;;;16.30;100.00
16030;BME280;34770;49.272;11.070;2022-08-21T01:39:45;97734.78;;;16.26;100.00
16030;BME280;34770;49.272;11.070;2022-08-21T01:42:11;97742.41;;;16.25;100.00
16030;BME280;34770;49.272;11.070;2022-08-21T01:44:37;97733.59;;;16.27;100.00
16030;BME280;34770;49.272;11.070;2022-08-21T01:47:06;97740.78;;;16.24;100.00
16030;BME280;34770;49.272;11.070;2022-08-21T01:49:33;97719.47;;;16.09;100.00
16030;BME280;34770;49.272;11.070;2022-08-21T01:51:59;97717.84;;;16.01;100.00
16030;BME280;34770;49.272;11.070;2022-08-21T01:54:24;97725.09;;;16.05;100.00
16030;BME280;34770;49.272;11.070;2022-08-21T01:56:52;97733.53;;;16.13;100.00
16030;BME280;34770;49.272;11.070;2022-08-21T01:59:18;97735.47;;;16.01;100.00
16030;BME280;34770;49.272;11.070;2022-08-21T02:01:43;97733.00;;;15.89;100.00
16030;BME280;34770;49.272;11.070;2022-08-21T02:04:09;97735.06;;;15.99;100.00
16030;BME280;34770;49.272;11.070;2022-08-21T02:06:36;97740.72;;;16.03;100.00
16030;BME280;34770;49.272;11.070;2022-08-21T02:09:06;97726.28;;;16.08;100.00
16030;BME280;34770;49.272;11.070;2022-08-21T02:14:19;97721.81;;;15.96;100.00
16030;BME280;34770;49.272;11.070;2022-08-21T02:16:45;97724.97;;;15.84;100.00
16030;BME280;34770;49.272;11.070;2022-08-21T02:19:13;97732.88;;;15.71;100.00
16030;BME280;34770;49.272;11.070;2022-08-21T02:21:39;97728.38;;;15.59;100.00
16030;BME280;34770;49.272;11.070;2022-08-21T02:24:06;97728.00;;;15.60;100.00
16030;BME280;34770;49.272;11.070;2022-08-21T02:26:32;97727.13;;;15.53;100.00
16030;BME280;34770;49.272;11.070;2022-08-21T02:28:57;97725.56;;;15.59;100.00
16030;BME280;34770;49.272;11.070;2022-08-21T02:31:23;97721.88;;;15.44;100.00
16030;BME280;34770;49.272;11.070;2022-08-21T02:33:49;97728.81;;;15.64;100.00
16030;BME280;34770;49.272;11.070;2022-08-21T02:36:15;97732.03;;;15.63;100.00
16030;BME280;34770;49.272;11.070;2022-08-21T02:38:41;97703.78;;;15.34;100.00
16030;BME280;34770;49.272;11.070;2022-08-21T02:41:14;97732.34;;;15.51;100.00
16030;BME280;34770;49.272;11.070;2022-08-21T02:43:40;97711.88;;;15.46;100.00
16030;BME280;34770;49.272;11.070;2022-08-21T02:46:08;97730.31;;;15.47;100.00
16030;BME280;34770;49.272;11.070;2022-08-21T02:48:33;97711.75;;;15.32;100.00
16030;BME280;34770;49.272;11.070;2022-08-21T02:51:14;97706.94;;;15.29;100.00
16030;BME280;34770;49.272;11.070;2022-08-21T02:53:41;97729.50;;;15.47;100.00
16030;BME280;34770;49.272;11.070;2022-08-21T02:56:09;97726.72;;;15.47;100.00
16030;BME280;34770;49.272;11.070;2022-08-21T02:58:47;97732.22;;;15.32;100.00
16030;BME280;34770;49.272;11.070;2022-08-21T03:01:13;97732.13;;;15.22;100.00
16030;BME280;34770;49.272;11.070;2022-08-21T03:03:41;97733.22;;;15.10;100.00
16030;BME280;34770;49.272;11.070;2022-08-21T03:06:08;97734.94;;;15.22;100.00
16030;BME280;34770;49.272;11.070;2022-08-21T03:08:34;97730.16;;;15.29;100.00
16030;BME280;34770;49.272;11.070;2022-08-21T03:11:00;97728.19;;;15.34;100.00
16030;BME280;34770;49.272;11.070;2022-08-21T03:13:27;97739.06;;;15.39;100.00
16030;BME280;34770;49.272;11.070;2022-08-21T03:15:53;97709.31;;;15.23;100.00
16030;BME280;34770;49.272;11.070;2022-08-21T03:18:19;97714.78;;;15.09;100.00
16030;BME280;34770;49.272;11.070;2022-08-21T03:20:46;97730.34;;;15.03;100.00
16030;BME280;34770;49.272;11.070;2022-08-21T03:23:11;97719.59;;;15.08;100.00
16030;BME280;34770;49.272;11.070;2022-08-21T03:25:38;97732.41;;;15.06;100.00
16030;BME280;34770;49.272;11.070;2022-08-21T03:28:06;97727.66;;;15.13;100.00
16030;BME280;34770;49.272;11.070;2022-08-21T03:30:31;97725.94;;;15.02;100.00
16030;BME280;34770;49.272;11.070;2022-08-21T03:33:00;97735.25;;;15.16;100.00
16030;BME280;34770;49.272;11.070;2022-08-21T03:35:26;97709.22;;;15.12;100.00
16030;BME280;34770;49.272;11.070;2022-08-21T03:37:53;97717.22;;;15.14;100.00
16030;BME280;34770;49.272;11.070;2022-08-21T03:40:19;97726.50;;;15.22;100.00
16030;BME280;34770;49.272;11.070;2022-08-21T03:42:46;97728.09;;;15.19;100.00
16030;BME280;34770;49.272;11.070;2022-08-21T03:45:16;97724.50;;;15.22;100.00
16030;BME280;34770;49.272;11.070;2022-08-21T03:47:57;97735.34;;;15.27;100.00
16030;BME280;34770;49.272;11.070;2022-08-21T03:50:28;97745.78;;;15.27;100.00
16030;BME280;34770;49.272;11.070;2022-08-21T03:52:53;97737.00;;;15.32;100.00
16030;BME280;34770;49.272;11.070;2022-08-21T03:55:19;97740.19;;;15.30;100.00
16030;BME280;34770;49.272;11.070;2022-08-21T03:57:44;97746.19;;;15.29;100.00
16030;BME280;34770;49.272;11.070;2022-08-21T04:00:11;97750.63;;;15.30;100.00
16030;BME280;34770;49.272;11.070;2022-08-21T04:02:38;97748.50;;;15.20;100.00
16030;BME280;34770;49.272;11.070;2022-08-21T04:05:05;97752.56;;;15.26;100.00
16030;BME280;34770;49.272;11.070;2022-08-21T04:07:30;97755.78;;;15.24;100.00
16030;BME280;34770;49.272;11.070;2022-08-21T04:09:56;97757.25;;;15.11;100.00
16030;BME280;34770;49.272;11.070;2022-08-21T04:12:21;97759.19;;;15.07;100.00
16030;BME280;34770;49.272;11.070;2022-08-21T04:14:46;97757.19;;;15.04;100.00
16030;BME280;34770;49.272;11.070;2022-08-21T04:17:12;97757.50;;;14.95;100.00
16030;BME280;34770;49.272;11.070;2022-08-21T04:19:37;97744.66;;;14.90;100.00
16030;BME280;34770;49.272;11.070;2022-08-21T04:22:03;97747.84;;;14.92;100.00
16030;BME280;34770;49.272;11.070;2022-08-21T04:24:29;97768.72;;;14.95;100.00
16030;BME280;34770;49.272;11.070;2022-08-21T04:26:54;97742.16;;;14.81;100.00
16030;BME280;34770;49.272;11.070;2022-08-21T04:29:20;97772.28;;;14.92;100.00
16030;BME280;34770;49.272;11.070;2022-08-21T04:31:45;97765.84;;;14.88;100.00
16030;BME280;34770;49.272;11.070;2022-08-21T04:34:10;97771.50;;;14.91;100.00
16030;BME280;34770;49.272;11.070;2022-08-21T04:36:36;97757.84;;;14.90;100.00
16030;BME280;34770;49.272;11.070;2022-08-21T04:39:01;97765.91;;;14.95;100.00
16030;BME280;34770;49.272;11.070;2022-08-21T04:41:27;97746.16;;;14.80;100.00
16030;BME280;34770;49.272;11.070;2022-08-21T04:43:52;97767.09;;;14.94;100.00
16030;BME280;34770;49.272;11.070;2022-08-21T04:46:20;97778.66;;;14.89;100.00
16030;BME280;34770;49.272;11.070;2022-08-21T04:48:45;97758.53;;;14.76;100.00
16030;BME280;34770;49.272;11.070;2022-08-21T04:53:42;97797.56;;;14.99;100.00
16030;BME280;34770;49.272;11.070;2022-08-21T04:56:20;97763.44;;;14.90;100.00
16030;BME280;34770;49.272;11.070;2022-08-21T04:58:48;97782.44;;;15.07;100.00
16030;BME280;34770;49.272;11.070;2022-08-21T05:01:17;97777.66;;;15.11;100.00
16030;BME280;34770;49.272;11.070;2022-08-21T05:03:44;97788.59;;;15.24;100.00
16030;BME280;34770;49.272;11.070;2022-08-21T05:06:12;97791.06;;;15.29;100.00
16030;BME280;34770;49.272;11.070;2022-08-21T05:08:41;97786.25;;;15.29;100.00
16030;BME280;34770;49.272;11.070;2022-08-21T05:11:09;97803.16;;;15.40;100.00
16030;BME280;34770;49.272;11.070;2022-08-21T05:13:35;97791.53;;;15.38;100.00
16030;BME280;34770;49.272;11.070;2022-08-21T05:16:00;97796.66;;;15.29;100.00
16030;BME280;34770;49.272;11.070;2022-08-21T05:18:26;97794.28;;;15.35;100.00
16030;BME280;34770;49.272;11.070;2022-08-21T05:20:51;97791.59;;;15.45;100.00
16030;BME280;34770;49.272;11.070;2022-08-21T05:23:17;97786.34;;;15.40;100.00
16030;BME280;34770;49.272;11.070;2022-08-21T05:25:42;97792.84;;;15.52;100.00
16030;BME280;34770;49.272;11.070;2022-08-21T05:28:09;97804.75;;;15.38;100.00
16030;BME280;34770;49.272;11.070;2022-08-21T05:30:36;97798.31;;;15.37;100.00
16030;BME280;34770;49.272;11.070;2022-08-21T05:33:03;97801.66;;;15.54;100.00
16030;BME280;34770;49.272;11.070;2022-08-21T05:35:29;97799.38;;;15.67;100.00
16030;BME280;34770;49.272;11.070;2022-08-21T05:37:55;97802.97;;;15.67;100.00
16030;BME280;34770;49.272;11.070;2022-08-21T05:40:21;97805.97;;;15.40;100.00
16030;BME280;34770;49.272;11.070;2022-08-21T05:42:47;97805.72;;;15.60;100.00
16030;BME280;34770;49.272;11.070;2022-08-21T05:45:13;97812.94;;;15.61;100.00
16030;BME280;34770;49.272;11.070;2022-08-21T05:47:38;97804.97;;;15.63;100.00
16030;BME280;34770;49.272;11.070;2022-08-21T05:50:05;97797.41;;;15.22;100.00
16030;BME280;34770;49.272;11.070;2022-08-21T05:52:30;97809.56;;;15.41;100.00
16030;BME280;34770;49.272;11.070;2022-08-21T05:54:56;97811.69;;;15.55;100.00
16030;BME280;34770;49.272;11.070;2022-08-21T05:57:22;97803.22;;;15.47;100.00
16030;BME280;34770;49.272;11.070;2022-08-21T05:59:48;97815.69;;;15.54;100.00
16030;BME280;34770;49.272;11.070;2022-08-21T06:02:14;97796.00;;;15.46;100.00
16030;BME280;34770;49.272;11.070;2022-08-21T06:04:41;97813.69;;;15.51;100.00
16030;BME280;34770;49.272;11.070;2022-08-21T06:07:07;97813.41;;;15.67;100.00
16030;BME280;34770;49.272;11.070;2022-08-21T06:09:33;97799.41;;;15.70;100.00
16030;BME280;34770;49.272;11.070;2022-08-21T06:12:03;97799.91;;;15.83;100.00
16030;BME280;34770;49.272;11.070;2022-08-21T06:14:29;97802.84;;;16.01;100.00
16030;BME280;34770;49.272;11.070;2022-08-21T06:16:54;97800.13;;;16.16;100.00
16030;BME280;34770;49.272;11.070;2022-08-21T06:19:19;97802.19;;;16.26;100.00
16030;BME280;34770;49.272;11.070;2022-08-21T06:21:45;97807.91;;;16.48;100.00
16030;BME280;34770;49.272;11.070;2022-08-21T06:24:10;97818.34;;;16.51;100.00
16030;BME280;34770;49.272;11.070;2022-08-21T06:26:36;97819.19;;;16.66;100.00
16030;BME280;34770;49.272;11.070;2022-08-21T06:29:02;97802.72;;;16.61;100.00
16030;BME280;34770;49.272;11.070;2022-08-21T06:31:27;97824.88;;;16.80;100.00
16030;BME280;34770;49.272;11.070;2022-08-21T06:33:53;97832.94;;;16.85;100.00
16030;BME280;34770;49.272;11.070;2022-08-21T06:36:19;97821.34;;;16.94;100.00
16030;BME280;34770;49.272;11.070;2022-08-21T06:38:48;97816.50;;;16.95;100.00
16030;BME280;34770;49.272;11.070;2022-08-21T06:41:13;97810.81;;;16.84;100.00
16030;BME280;34770;49.272;11.070;2022-08-21T06:43:39;97808.72;;;16.55;100.00
16030;BME280;34770;49.272;11.070;2022-08-21T06:46:04;97828.03;;;16.64;100.00
16030;BME280;34770;49.272;11.070;2022-08-21T06:48:29;97826.50;;;16.85;100.00
16030;BME280;34770;49.272;11.070;2022-08-21T06:50:59;97827.75;;;16.95;100.00
16030;BME280;34770;49.272;11.070;2022-08-21T06:53:24;97828.19;;;17.04;100.00
16030;BME280;34770;49.272;11.070;2022-08-21T06:55:50;97808.50;;;17.04;100.00
16030;BME280;34770;49.272;11.070;2022-08-21T06:58:16;97822.59;;;17.15;100.00
16030;BME280;34770;49.272;11.070;2022-08-21T07:00:45;97827.41;;;17.00;100.00
16030;BME280;34770;49.272;11.070;2022-08-21T07:03:25;97826.09;;;16.79;100.00
16030;BME280;34770;49.272;11.070;2022-08-21T07:05:53;97836.59;;;16.97;100.00
16030;BME280;34770;49.272;11.070;2022-08-21T07:08:18;97820.53;;;17.01;100.00
16030;BME280;34770;49.272;11.070;2022-08-21T07:10:44;97824.63;;;17.29;100.00
16030;BME280;34770;49.272;11.070;2022-08-21T07:13:11;97825.81;;;17.17;100.00
16030;BME280;34770;49.272;11.070;2022-08-21T07:15:36;97840.28;;;17.33;100.00
16030;BME280;34770;49.272;11.070;2022-08-21T07:18:01;97835.88;;;17.39;100.00
16030;BME280;34770;49.272;11.070;2022-08-21T07:20:29;97821.44;;;17.59;100.00
16030;BME280;34770;49.272;11.070;2022-08-21T07:22:56;97834.69;;;17.66;100.00
16030;BME280;34770;49.272;11.070;2022-08-21T07:25:22;97817.03;;;17.73;100.00
16030;BME280;34770;49.272;11.070;2022-08-21T07:27:47;97831.09;;;17.94;100.00
16030;BME280;34770;49.272;11.070;2022-08-21T07:30:13;97825.06;;;17.99;100.00
16030;BME280;34770;49.272;11.070;2022-08-21T07:32:38;97820.22;;;18.00;100.00
16030;BME280;34770;49.272;11.070;2022-08-21T07:35:04;97831.47;;;18.11;100.00
16030;BME280;34770;49.272;11.070;2022-08-21T07:37:29;97825.84;;;18.11;100.00
16030;BME280;34770;49.272;11.070;2022-08-21T07:39:55;97829.03;;;18.27;100.00
16030;BME280;34770;49.272;11.070;2022-08-21T07:42:20;97831.88;;;18.20;100.00
16030;BME280;34770;49.272;11.070;2022-08-21T07:44:46;97823.38;;;18.34;100.00
16030;BME280;34770;49.272;11.070;2022-08-21T07:47:11;97826.97;;;18.39;100.00
16030;BME280;34770;49.272;11.070;2022-08-21T07:49:37;97833.06;;;18.26;100.00
16030;BME280;34770;49.272;11.070;2022-08-21T07:52:03;97819.00;;;18.05;100.00
16030;BME280;34770;49.272;11.070;2022-08-21T07:54:28;97821.81;;;18.19;100.00
16030;BME280;34770;49.272;11.070;2022-08-21T07:56:53;97831.00;;;18.38;100.00
16030;BME280;34770;49.272;11.070;2022-08-21T07:59:19;97825.72;;;18.54;100.00
16030;BME280;34770;49.272;11.070;2022-08-21T08:01:44;97829.31;;;18.65;100.00
16030;BME280;34770;49.272;11.070;2022-08-21T08:04:09;97825.75;;;18.43;100.00
16030;BME280;34770;49.272;11.070;2022-08-21T08:06:35;97816.06;;;18.55;100.00
16030;BME280;34770;49.272;11.070;2022-08-21T08:09:00;97828.06;;;18.74;100.00
16030;BME280;34770;49.272;11.070;2022-08-21T08:11:28;97808.28;;;18.81;100.00
16030;BME280;34770;49.272;11.070;2022-08-21T08:13:54;97794.28;;;18.63;100.00
16030;BME280;34770;49.272;11.070;2022-08-21T08:16:19;97815.56;;;18.82;100.00
16030;BME280;34770;49.272;11.070;2022-08-21T08:18:45;97815.44;;;19.11;100.00
16030;BME280;34770;49.272;11.070;2022-08-21T08:21:11;97818.34;;;18.89;100.00
16030;BME280;34770;49.272;11.070;2022-08-21T08:23:38;97818.09;;;19.33;100.00
16030;BME280;34770;49.272;11.070;2022-08-21T08:26:04;97791.56;;;19.26;100.00
16030;BME280;34770;49.272;11.070;2022-08-21T08:28:30;97811.66;;;19.28;100.00
16030;BME280;34770;49.272;11.070;2022-08-21T08:30:57;97814.41;;;19.43;100.00
16030;BME280;34770;49.272;11.070;2022-08-21T08:33:23;97796.72;;;19.35;100.00
16030;BME280;34770;49.272;11.070;2022-08-21T08:35:50;97813.31;;;19.26;100.00
16030;BME280;34770;49.272;11.070;2022-08-21T08:38:17;97802.75;;;19.37;100.00
16030;BME280;34770;49.272;11.070;2022-08-21T08:43:32;97809.22;;;18.56;100.00
16030;BME280;34770;49.272;11.070;2022-08-21T08:46:02;97814.47;;;18.47;100.00
16030;BME280;34770;49.272;11.070;2022-08-21T08:48:41;97808.56;;;19.16;100.00
16030;BME280;34770;49.272;11.070;2022-08-21T08:51:17;97784.44;;;19.56;100.00
16030;BME280;34770;49.272;11.070;2022-08-21T08:53:55;97802.78;;;19.86;100.00
16030;BME280;34770;49.272;11.070;2022-08-21T08:56:27;97805.09;;;20.37;100.00
16030;BME280;34770;49.272;11.070;2022-08-21T08:58:56;97799.00;;;20.73;100.00
16030;BME280;34770;49.272;11.070;2022-08-21T09:01:23;97801.91;;;20.66;100.00
16030;BME280;34770;49.272;11.070;2022-08-21T09:03:49;97814.91;;;20.25;100.00
16030;BME280;34770;49.272;11.070;2022-08-21T09:06:40;97799.91;;;20.66;100.00
16030;BME280;34770;49.272;11.070;2022-08-21T09:11:43;97808.09;;;21.46;100.00
16030;BME280;34770;49.272;11.070;2022-08-21T09:20:03;97808.81;;;21.27;100.00
16030;BME280;34770;49.272;11.070;2022-08-21T09:25:18;97803.84;;;21.07;100.00
16030;BME280;34770;49.272;11.070;2022-08-21T09:27:45;97796.72;;;20.61;100.00
16030;BME280;34770;49.272;11.070;2022-08-21T09:30:12;97799.13;;;20.97;98.12
16030;BME280;34770;49.272;11.070;2022-08-21T09:32:38;97796.34;;;21.75;92.99
16030;BME280;34770;49.272;11.070;2022-08-21T09:35:09;97793.94;;;22.41;90.21
16030;BME280;34770;49.272;11.070;2022-08-21T09:37:52;97784.56;;;22.44;93.40
16030;BME280;34770;49.272;11.070;2022-08-21T09:40:43;97779.38;;;23.16;88.46
16030;BME280;34770;49.272;11.070;2022-08-21T09:45:35;97770.91;;;23.82;84.04
16030;BME280;34770;49.272;11.070;2022-08-21T09:48:12;97770.59;;;24.26;79.77
16030;BME280;34770;49.272;11.070;2022-08-21T09:50:38;97765.28;;;24.41;81.51
16030;BME280;34770;49.272;11.070;2022-08-21T09:53:04;97765.84;;;23.90;82.18
16030;BME280;34770;49.272;11.070;2022-08-21T09:55:39;97764.00;;;24.29;81.56
16030;BME280;34770;49.272;11.070;2022-08-21T09:58:32;97760.50;;;24.67;80.15
16030;BME280;34770;49.272;11.070;2022-08-21T10:01:01;97763.38;;;24.51;78.78
16030;BME280;34770;49.272;11.070;2022-08-21T10:03:29;97761.59;;;23.98;75.45
16030;BME280;34770;49.272;11.070;2022-08-21T10:06:02;97740.34;;;24.32;77.01
16030;BME280;34770;49.272;11.070;2022-08-21T10:08:31;97750.72;;;24.81;79.22
16030;BME280;34770;49.272;11.070;2022-08-21T10:11:06;97757.94;;;25.51;75.64
16030;BME280;34770;49.272;11.070;2022-08-21T10:22:11;97746.88;;;25.14;72.36
16030;BME280;34770;49.272;11.070;2022-08-21T10:27:34;97746.09;;;26.13;69.90
16030;BME280;34770;49.272;11.070;2022-08-21T10:30:08;97738.31;;;26.14;70.68
16030;BME280;34770;49.272;11.070;2022-08-21T10:32:58;97749.97;;;25.32;69.71
16030;BME280;34770;49.272;11.070;2022-08-21T10:35:31;97751.56;;;25.08;71.81
16030;BME280;34770;49.272;11.070;2022-08-21T10:48:35;97753.72;;;24.48;69.38
16030;BME280;34770;49.272;11.070;2022-08-21T10:51:22;97745.84;;;24.82;70.91
16030;BME280;34770;49.272;11.070;2022-08-21T10:56:35;97739.00;;;24.66;69.27
16030;BME280;34770;49.272;11.070;2022-08-21T11:01:48;97737.75;;;24.67;67.80
16030;BME280;34770;49.272;11.070;2022-08-21T11:04:34;97735.50;;;26.01;67.39
16030;BME280;34770;49.272;11.070;2022-08-21T11:07:25;97744.56;;;26.43;65.96
16030;BME280;34770;49.272;11.070;2022-08-21T11:09:54;97729.22;;;26.95;64.26
16030;BME280;34770;49.272;11.070;2022-08-21T11:12:40;97732.31;;;27.50;63.15
16030;BME280;34770;49.272;11.070;2022-08-21T11:17:43;97732.06;;;26.95;60.24
16030;BME280;34770;49.272;11.070;2022-08-21T11:20:16;97733.81;;;27.33;59.08
16030;BME280;34770;49.272;11.070;2022-08-21T11:22:58;97723.31;;;26.67;56.65
16030;BME280;34770;49.272;11.070;2022-08-21T11:25:37;97719.97;;;27.72;58.55
16030;BME280;34770;49.272;11.070;2022-08-21T11:28:13;97727.75;;;27.81;58.02
16030;BME280;34770;49.272;11.070;2022-08-21T11:36:34;97720.31;;;28.02;55.88
16030;BME280;34770;49.272;11.070;2022-08-21T11:42:08;97693.16;;;28.16;53.82
16030;BME280;34770;49.272;11.070;2022-08-21T11:47:36;97714.75;;;27.30;53.55
16030;BME280;34770;49.272;11.070;2022-08-21T11:50:15;97711.59;;;28.33;54.49
16030;BME280;34770;49.272;11.070;2022-08-21T11:52:49;97708.13;;;26.70;54.15
16030;BME280;34770;49.272;11.070;2022-08-21T11:55:22;97704.41;;;27.73;53.26
16030;BME280;34770;49.272;11.070;2022-08-21T11:58:14;97705.88;;;28.24;53.55
16030;BME280;34770;49.272;11.070;2022-08-21T12:00:55;97697.88;;;28.56;50.68
16030;BME280;34770;49.272;11.070;2022-08-21T12:03:27;97694.69;;;27.61;53.98
16030;BME280;34770;49.272;11.070;2022-08-21T12:06:04;97676.78;;;27.89;51.27
16030;BME280;34770;49.272;11.070;2022-08-21T12:11:25;97664.25;;;28.23;47.64
16030;BME280;34770;49.272;11.070;2022-08-21T12:14:13;97664.28;;;28.85;50.32
16030;BME280;34770;49.272;11.070;2022-08-21T12:16:43;97681.63;;;28.62;48.11
16030;BME280;34770;49.272;11.070;2022-08-21T12:19:12;97676.72;;;29.15;48.11
16030;BME280;34770;49.272;11.070;2022-08-21T12:21:53;97667.06;;;29.61;48.61
16030;BME280;34770;49.272;11.070;2022-08-21T12:27:00;97656.00;;;30.47;44.60
16030;BME280;34770;49.272;11.070;2022-08-21T12:29:32;97658.72;;;29.87;42.98
16030;BME280;34770;49.272;11.070;2022-08-21T12:31:59;97671.53;;;28.95;43.06
16030;BME280;34770;49.272;11.070;2022-08-21T12:34:37;97659.00;;;27.66;45.57
16030;BME280;34770;49.272;11.070;2022-08-21T12:37:15;97663.78;;;29.20;48.13
16030;BME280;34770;49.272;11.070;2022-08-21T12:39:45;97659.47;;;28.29;46.70
16030;BME280;34770;49.272;11.070;2022-08-21T12:42:18;97654.81;;;29.03;45.50
16030;BME280;34770;49.272;11.070;2022-08-21T12:44:59;97653.09;;;28.96;43.37
16030;BME280;34770;49.272;11.070;2022-08-21T12:47:31;97637.00;;;28.46;44.88
16030;BME280;34770;49.272;11.070;2022-08-21T12:50:05;97652.25;;;28.71;44.28
16030;BME280;34770;49.272;11.070;2022-08-21T12:52:40;97637.31;;;29.34;46.08
16030;BME280;34770;49.272;11.070;2022-08-21T12:55:11;97636.00;;;28.59;42.58
16030;BME280;34770;49.272;11.070;2022-08-21T12:57:40;97644.13;;;29.03;47.37
16030;BME280;34770;49.272;11.070;2022-08-21T13:00:10;97647.75;;;29.86;45.47
16030;BME280;34770;49.272;11.070;2022-08-21T13:02:42;97642.75;;;29.23;41.62
16030;BME280;34770;49.272;11.070;2022-08-21T13:05:14;97642.25;;;29.00;43.45
16030;BME280;34770;49.272;11.070;2022-08-21T13:07:44;97646.59;;;27.78;44.30
16030;BME280;34770;49.272;11.070;2022-08-21T13:10:20;97638.78;;;28.87;47.84
16030;BME280;34770;49.272;11.070;2022-08-21T13:12:47;97634.84;;;29.66;43.15
16030;BME280;34770;49.272;11.070;2022-08-21T13:15:14;97638.34;;;30.10;40.91
16030;BME280;34770;49.272;11.070;2022-08-21T13:17:43;97630.88;;;29.88;41.57
16030;BME280;34770;49.272;11.070;2022-08-21T13:20:36;97631.53;;;28.76;43.15
16030;BME280;34770;49.272;11.070;2022-08-21T13:23:07;97639.56;;;27.33;46.25
16030;BME280;34770;49.272;11.070;2022-08-21T13:25:41;97641.13;;;26.84;47.14
16030;BME280;34770;49.272;11.070;2022-08-21T13:28:08;97630.06;;;27.45;45.05
16030;BME280;34770;49.272;11.070;2022-08-21T13:30:39;97615.16;;;27.60;44.74
16030;BME280;34770;49.272;11.070;2022-08-21T13:33:06;97616.28;;;28.61;44.71
16030;BME280;34770;49.272;11.070;2022-08-21T13:35:48;97618.31;;;27.90;45.85
16030;BME280;34770;49.272;11.070;2022-08-21T13:38:15;97608.19;;;29.26;44.40
16030;BME280;34770;49.272;11.070;2022-08-21T13:41:03;97613.31;;;30.10;41.83
16030;BME280;34770;49.272;11.070;2022-08-21T13:43:35;97617.97;;;30.07;43.30
16030;BME280;34770;49.272;11.070;2022-08-21T13:46:02;97613.41;;;30.91;44.19
16030;BME280;34770;49.272;11.070;2022-08-21T13:48:33;97612.63;;;31.26;40.66
16030;BME280;34770;49.272;11.070;2022-08-21T13:51:26;97614.50;;;31.49;40.36
16030;BME280;34770;49.272;11.070;2022-08-21T13:53:52;97616.19;;;30.40;41.95
16030;BME280;34770;49.272;11.070;2022-08-21T13:58:53;97626.88;;;30.10;42.02
16030;BME280;34770;49.272;11.070;2022-08-21T14:01:28;97613.75;;;28.72;43.76
16030;BME280;34770;49.272;11.070;2022-08-21T14:03:58;97628.16;;;27.98;43.22